sensor_id;sensor_type;location;lat;lon;timestamp;pressure;altitude;pressure_sealevel;temperature;humidity
73842;BME280;62184;52.006;5.924;2023-03-23T00:00:02;99474.63;;;17.37;55.35
73842;BME280;62184;52.006;5.924;2023-03-23T00:02:30;99475.47;;;17.38;55.48
73842;BME280;62184;52.006;5.924;2023-03-23T00:04:59;99468.25;;;17.38;55.32
73842;BME280;62184;52.006;5.924;2023-03-23T00:07:26;99468.13;;;17.40;55.10
73842;BME280;62184;52.006;5.924;2023-03-23T00:09:53;99473.66;;;17.38;55.40
73842;BME280;62184;52.006;5.924;2023-03-23T00:12:21;99470.31;;;17.35;55.26
73842;BME280;62184;52.006;5.924;2023-03-23T00:14:48;99460.25;;;17.37;55.49
73842;BME280;62184;52.006;5.924;2023-03-23T00:17:14;99455.72;;;17.37;55.16
73842;BME280;62184;52.006;5.924;2023-03-23T00:19:41;99458.22;;;17.40;54.99
73842;BME280;62184;52.006;5.924;2023-03-23T00:22:10;99462.97;;;17.37;55.01
73842;BME280;62184;52.006;5.924;2023-03-23T00:24:36;99468.56;;;17.34;55.36
73842;BME280;62184;52.006;5.924;2023-03-23T00:27:03;99463.06;;;17.35;55.13
73842;BME280;62184;52.006;5.924;2023-03-23T00:29:29;99457.44;;;17.38;55.11
73842;BME280;62184;52.006;5.924;2023-03-23T00:31:56;99458.72;;;17.45;55.09
73842;BME280;62184;52.006;5.924;2023-03-23T00:34:23;99448.88;;;17.44;54.96
73842;BME280;62184;52.006;5.924;2023-03-23T00:36:52;99452.22;;;17.48;54.85
73842;BME280;62184;52.006;5.924;2023-03-23T00:39:23;99460.22;;;17.49;54.69
73842;BME280;62184;52.006;5.924;2023-03-23T00:41:51;99467.31;;;17.50;54.63
73842;BME280;62184;52.006;5.924;2023-03-23T00:44:17;99465.16;;;17.55;54.72
73842;BME280;62184;52.006;5.924;2023-03-23T00:46:44;99463.31;;;17.56;54.70
73842;BME280;62184;52.006;5.924;2023-03-23T00:49:12;99473.16;;;17.57;54.46
73842;BME280;62184;52.006;5.924;2023-03-23T00:51:39;99469.47;;;17.58;54.49
73842;BME280;62184;52.006;5.924;2023-03-23T00:54:06;99465.69;;;17.61;54.41
73842;BME280;62184;52.006;5.924;2023-03-23T00:56:36;99467.41;;;17.62;54.44
73842;BME280;62184;52.006;5.924;2023-03-23T00:59:03;99457.91;;;17.56;54.00
73842;BME280;62184;52.006;5.924;2023-03-23T01:01:30;99459.84;;;17.54;54.38
73842;BME280;62184;52.006;5.924;2023-03-23T01:03:58;99450.41;;;17.48;54.27
73842;BME280;62184;52.006;5.924;2023-03-23T01:06:24;99439.81;;;17.45;54.69
73842;BME280;62184;52.006;5.924;2023-03-23T01:08:51;99427.06;;;17.47;54.50
73842;BME280;62184;52.006;5.924;2023-03-23T01:11:17;99417.84;;;17.50;54.51
73842;BME280;62184;52.006;5.924;2023-03-23T01:13:46;99387.44;;;17.48;54.05
73842;BME280;62184;52.006;5.924;2023-03-23T01:16:13;99368.00;;;17.43;54.31
73842;BME280;62184;52.006;5.924;2023-03-23T01:18:39;99381.97;;;17.37;54.43
73842;BME280;62184;52.006;5.924;2023-03-23T01:21:08;99393.00;;;17.34;54.64
73842;BME280;62184;52.006;5.924;2023-03-23T01:23:37;99389.22;;;17.36;54.52
73842;BME280;62184;52.006;5.924;2023-03-23T01:26:05;99377.44;;;17.37;54.54
73842;BME280;62184;52.006;5.924;2023-03-23T01:28:33;99389.00;;;17.39;54.32
73842;BME280;62184;52.006;5.924;2023-03-23T01:31:03;99400.13;;;17.35;54.53
73842;BME280;62184;52.006;5.924;2023-03-23T01:33:32;99385.91;;;17.33;54.51
73842;BME280;62184;52.006;5.924;2023-03-23T01:36:03;99365.28;;;17.32;54.29
73842;BME280;62184;52.006;5.924;2023-03-23T01:38:31;99357.19;;;17.32;54.51
73842;BME280;62184;52.006;5.924;2023-03-23T01:40:59;99348.72;;;17.36;54.02
73842;BME280;62184;52.006;5.924;2023-03-23T01:43:25;99339.66;;;17.37;54.14
73842;BME280;62184;52.006;5.924;2023-03-23T01:45:52;99331.56;;;17.37;54.21
73842;BME280;62184;52.006;5.924;2023-03-23T01:48:24;99351.66;;;17.33;54.13
73842;BME280;62184;52.006;5.924;2023-03-23T01:50:57;99334.50;;;17.34;53.92
73842;BME280;62184;52.006;5.924;2023-03-23T01:53:34;99348.50;;;17.39;54.29
73842;BME280;62184;52.006;5.924;2023-03-23T01:56:06;99352.56;;;17.45;53.92
73842;BME280;62184;52.006;5.924;2023-03-23T01:58:37;99339.81;;;17.47;53.81
73842;BME280;62184;52.006;5.924;2023-03-23T02:01:07;99343.28;;;17.49;53.31
73842;BME280;62184;52.006;5.924;2023-03-23T02:03:41;99350.63;;;17.47;53.60
73842;BME280;62184;52.006;5.924;2023-03-23T02:06:10;99349.66;;;17.48;53.84
73842;BME280;62184;52.006;5.924;2023-03-23T02:08:38;99349.75;;;17.46;53.44
73842;BME280;62184;52.006;5.924;2023-03-23T02:11:14;99348.66;;;17.49;53.74
73842;BME280;62184;52.006;5.924;2023-03-23T02:13:42;99345.72;;;17.52;53.84
73842;BME280;62184;52.006;5.924;2023-03-23T02:16:14;99339.56;;;17.50;54.06
73842;BME280;62184;52.006;5.924;2023-03-23T02:18:58;99339.56;;;17.50;54.09
73842;BME280;62184;52.006;5.924;2023-03-23T02:22:06;99339.34;;;17.53;54.22
73842;BME280;62184;52.006;5.924;2023-03-23T02:24:55;99316.88;;;17.52;54.25
73842;BME280;62184;52.006;5.924;2023-03-23T02:27:41;99317.50;;;17.56;54.15
73842;BME280;62184;52.006;5.924;2023-03-23T02:30:40;99315.72;;;17.56;53.93
73842;BME280;62184;52.006;5.924;2023-03-23T02:33:29;99315.34;;;17.61;53.96
73842;BME280;62184;52.006;5.924;2023-03-23T02:36:06;99312.28;;;17.66;54.09
73842;BME280;62184;52.006;5.924;2023-03-23T02:38:44;99312.28;;;17.66;53.77
73842;BME280;62184;52.006;5.924;2023-03-23T02:41:20;99320.00;;;17.59;53.96
73842;BME280;62184;52.006;5.924;2023-03-23T02:43:50;99321.81;;;17.58;54.15
73842;BME280;62184;52.006;5.924;2023-03-23T02:46:19;99327.03;;;17.73;53.98
73842;BME280;62184;52.006;5.924;2023-03-23T02:48:54;99319.91;;;17.72;53.76
73842;BME280;62184;52.006;5.924;2023-03-23T02:51:24;99327.38;;;17.68;53.61
73842;BME280;62184;52.006;5.924;2023-03-23T02:53:54;99325.66;;;17.67;53.66
73842;BME280;62184;52.006;5.924;2023-03-23T02:56:25;99320.75;;;17.72;53.52
73842;BME280;62184;52.006;5.924;2023-03-23T02:58:55;99314.13;;;17.76;53.63
73842;BME280;62184;52.006;5.924;2023-03-23T03:01:48;99313.03;;;17.79;53.78
73842;BME280;62184;52.006;5.924;2023-03-23T03:04:23;99315.72;;;17.79;53.35
73842;BME280;62184;52.006;5.924;2023-03-23T03:07:02;99317.34;;;17.81;53.66
73842;BME280;62184;52.006;5.924;2023-03-23T03:09:45;99316.09;;;17.85;53.43
73842;BME280;62184;52.006;5.924;2023-03-23T03:12:22;99321.13;;;17.79;53.47
73842;BME280;62184;52.006;5.924;2023-03-23T03:15:05;99325.44;;;17.81;53.23
73842;BME280;62184;52.006;5.924;2023-03-23T03:17:40;99322.25;;;17.87;53.24
73842;BME280;62184;52.006;5.924;2023-03-23T03:20:14;99323.13;;;17.88;52.72
73842;BME280;62184;52.006;5.924;2023-03-23T03:22:44;99318.69;;;17.87;52.87
73842;BME280;62184;52.006;5.924;2023-03-23T03:25:13;99314.66;;;17.81;52.58
73842;BME280;62184;52.006;5.924;2023-03-23T03:27:44;99311.09;;;17.81;52.57
73842;BME280;62184;52.006;5.924;2023-03-23T03:30:15;99316.81;;;17.76;52.67
73842;BME280;62184;52.006;5.924;2023-03-23T03:32:48;99312.41;;;17.75;52.80
73842;BME280;62184;52.006;5.924;2023-03-23T03:35:21;99305.91;;;17.78;52.68
73842;BME280;62184;52.006;5.924;2023-03-23T03:37:48;99305.69;;;17.81;52.80
73842;BME280;62184;52.006;5.924;2023-03-23T03:40:17;99315.25;;;17.85;53.34
73842;BME280;62184;52.006;5.924;2023-03-23T03:42:46;99317.22;;;17.83;53.29
73842;BME280;62184;52.006;5.924;2023-03-23T03:45:15;99307.53;;;17.80;53.54
73842;BME280;62184;52.006;5.924;2023-03-23T03:47:42;99302.13;;;17.80;53.81
73842;BME280;62184;52.006;5.924;2023-03-23T03:50:09;99311.94;;;17.81;53.33
73842;BME280;62184;52.006;5.924;2023-03-23T03:52:39;99302.00;;;17.82;53.58
73842;BME280;62184;52.006;5.924;2023-03-23T03:55:07;99327.41;;;17.79;53.66
73842;BME280;62184;52.006;5.924;2023-03-23T03:57:34;99324.69;;;17.79;53.80
73842;BME280;62184;52.006;5.924;2023-03-23T04:00:01;99321.50;;;17.74;53.46
73842;BME280;62184;52.006;5.924;2023-03-23T04:02:28;99314.75;;;17.80;53.57
73842;BME280;62184;52.006;5.924;2023-03-23T04:04:54;99300.50;;;17.78;53.48
73842;BME280;62184;52.006;5.924;2023-03-23T04:07:21;99308.00;;;17.74;53.15
73842;BME280;62184;52.006;5.924;2023-03-23T04:09:50;99319.78;;;17.73;52.93
73842;BME280;62184;52.006;5.924;2023-03-23T04:12:16;99321.50;;;17.74;53.33
73842;BME280;62184;52.006;5.924;2023-03-23T04:14:43;99309.97;;;17.72;52.97
73842;BME280;62184;52.006;5.924;2023-03-23T04:17:09;99302.47;;;17.76;52.92
73842;BME280;62184;52.006;5.924;2023-03-23T04:19:36;99302.47;;;17.76;52.73
73842;BME280;62184;52.006;5.924;2023-03-23T04:22:03;99303.09;;;17.79;53.01
73842;BME280;62184;52.006;5.924;2023-03-23T04:24:31;99300.63;;;17.76;52.53
73842;BME280;62184;52.006;5.924;2023-03-23T04:27:00;99303.94;;;17.80;52.59
73842;BME280;62184;52.006;5.924;2023-03-23T04:29:26;99308.59;;;17.78;52.75
73842;BME280;62184;52.006;5.924;2023-03-23T04:31:53;99306.78;;;17.78;52.55
73842;BME280;62184;52.006;5.924;2023-03-23T04:34:19;99316.72;;;17.78;52.52
73842;BME280;62184;52.006;5.924;2023-03-23T04:36:46;99300.28;;;17.81;52.28
73842;BME280;62184;52.006;5.924;2023-03-23T04:39:12;99322.88;;;17.80;52.48
73842;BME280;62184;52.006;5.924;2023-03-23T04:41:39;99318.31;;;17.80;52.15
73842;BME280;62184;52.006;5.924;2023-03-23T04:44:08;99320.03;;;17.81;51.98
73842;BME280;62184;52.006;5.924;2023-03-23T04:46:35;99320.91;;;17.82;51.80
73842;BME280;62184;52.006;5.924;2023-03-23T04:49:01;99327.66;;;17.87;51.89
73842;BME280;62184;52.006;5.924;2023-03-23T04:51:28;99334.41;;;17.82;51.80
73842;BME280;62184;52.006;5.924;2023-03-23T04:53:55;99332.31;;;17.85;51.95
73842;BME280;62184;52.006;5.924;2023-03-23T04:56:21;99338.69;;;17.84;51.77
73842;BME280;62184;52.006;5.924;2023-03-23T04:58:48;99337.47;;;17.77;51.56
73842;BME280;62184;52.006;5.924;2023-03-23T05:01:17;99341.13;;;17.76;51.62
73842;BME280;62184;52.006;5.924;2023-03-23T05:03:43;99347.78;;;17.83;51.56
73842;BME280;62184;52.006;5.924;2023-03-23T05:06:10;99334.41;;;17.82;51.51
73842;BME280;62184;52.006;5.924;2023-03-23T05:08:37;99331.06;;;17.78;51.18
73842;BME280;62184;52.006;5.924;2023-03-23T05:11:03;99333.78;;;17.78;51.34
73842;BME280;62184;52.006;5.924;2023-03-23T05:13:31;99328.38;;;17.78;51.44
73842;BME280;62184;52.006;5.924;2023-03-23T05:16:03;99337.34;;;17.79;51.02
73842;BME280;62184;52.006;5.924;2023-03-23T05:18:32;99350.47;;;17.83;50.88
73842;BME280;62184;52.006;5.924;2023-03-23T05:21:00;99344.47;;;17.80;51.12
73842;BME280;62184;52.006;5.924;2023-03-23T05:23:26;99342.75;;;17.79;51.26
73842;BME280;62184;52.006;5.924;2023-03-23T05:25:53;99348.91;;;17.81;50.61
73842;BME280;62184;52.006;5.924;2023-03-23T05:28:20;99350.84;;;17.79;51.08
73842;BME280;62184;52.006;5.924;2023-03-23T05:30:47;99355.16;;;17.81;50.93
73842;BME280;62184;52.006;5.924;2023-03-23T05:33:14;99357.09;;;17.79;50.88
73842;BME280;62184;52.006;5.924;2023-03-23T05:35:43;99348.25;;;17.77;50.60
73842;BME280;62184;52.006;5.924;2023-03-23T05:38:11;99343.84;;;17.76;50.63
73842;BME280;62184;52.006;5.924;2023-03-23T05:40:37;99343.59;;;17.79;50.61
73842;BME280;62184;52.006;5.924;2023-03-23T05:43:04;99354.28;;;17.81;50.21
73842;BME280;62184;52.006;5.924;2023-03-23T05:45:30;99348.91;;;17.81;50.41
73842;BME280;62184;52.006;5.924;2023-03-23T05:47:56;99343.75;;;17.89;50.06
73842;BME280;62184;52.006;5.924;2023-03-23T05:50:23;99343.88;;;17.87;50.28
73842;BME280;62184;52.006;5.924;2023-03-23T05:52:52;99350.34;;;17.85;50.44
73842;BME280;62184;52.006;5.924;2023-03-23T05:55:18;99351.22;;;17.85;50.21
73842;BME280;62184;52.006;5.924;2023-03-23T05:57:45;99359.31;;;17.85;50.45
73842;BME280;62184;52.006;5.924;2023-03-23T06:00:12;99354.66;;;17.87;50.61
73842;BME280;62184;52.006;5.924;2023-03-23T06:02:39;99357.25;;;17.89;50.21
73842;BME280;62184;52.006;5.924;2023-03-23T06:05:07;99359.09;;;17.88;50.32
73842;BME280;62184;52.006;5.924;2023-03-23T06:07:33;99359.84;;;17.90;50.12
73842;BME280;62184;52.006;5.924;2023-03-23T06:10:03;99362.91;;;17.97;50.34
73842;BME280;62184;52.006;5.924;2023-03-23T06:12:30;99367.94;;;18.02;50.10
73842;BME280;62184;52.006;5.924;2023-03-23T06:14:56;99372.47;;;18.01;49.88
73842;BME280;62184;52.006;5.924;2023-03-23T06:17:23;99369.66;;;18.03;50.11
73842;BME280;62184;52.006;5.924;2023-03-23T06:19:49;99357.88;;;18.04;49.91
73842;BME280;62184;52.006;5.924;2023-03-23T06:22:16;99368.69;;;18.04;50.22
73842;BME280;62184;52.006;5.924;2023-03-23T06:24:43;99381.81;;;18.08;50.52
73842;BME280;62184;52.006;5.924;2023-03-23T06:27:12;99374.22;;;18.13;50.05
73842;BME280;62184;52.006;5.924;2023-03-23T06:29:38;99375.56;;;18.19;49.97
73842;BME280;62184;52.006;5.924;2023-03-23T06:32:05;99380.13;;;18.18;49.75
73842;BME280;62184;52.006;5.924;2023-03-23T06:34:32;99385.91;;;18.14;50.07
73842;BME280;62184;52.006;5.924;2023-03-23T06:36:58;99389.81;;;18.10;49.88
73842;BME280;62184;52.006;5.924;2023-03-23T06:39:25;99386.66;;;18.16;50.08
73842;BME280;62184;52.006;5.924;2023-03-23T06:41:51;99387.50;;;18.16;50.11
73842;BME280;62184;52.006;5.924;2023-03-23T06:44:20;99391.19;;;18.15;49.74
73842;BME280;62184;52.006;5.924;2023-03-23T06:46:46;99391.78;;;18.19;49.86
73842;BME280;62184;52.006;5.924;2023-03-23T06:49:13;99402.59;;;18.19;49.88
73842;BME280;62184;52.006;5.924;2023-03-23T06:51:39;99397.31;;;18.17;49.82
73842;BME280;62184;52.006;5.924;2023-03-23T06:54:06;99405.31;;;18.19;49.80
73842;BME280;62184;52.006;5.924;2023-03-23T06:56:32;99406.78;;;18.12;49.80
73842;BME280;62184;52.006;5.924;2023-03-23T06:58:59;99416.72;;;18.11;49.79
73842;BME280;62184;52.006;5.924;2023-03-23T07:01:28;99410.09;;;18.15;49.55
73842;BME280;62184;52.006;5.924;2023-03-23T07:03:54;99412.19;;;18.12;50.21
73842;BME280;62184;52.006;5.924;2023-03-23T07:06:21;99413.16;;;18.11;50.27
73842;BME280;62184;52.006;5.924;2023-03-23T07:08:49;99422.50;;;18.07;50.29
73842;BME280;62184;52.006;5.924;2023-03-23T07:11:15;99412.28;;;18.10;50.16
73842;BME280;62184;52.006;5.924;2023-03-23T07:13:42;99418.31;;;18.14;50.54
73842;BME280;62184;52.006;5.924;2023-03-23T07:16:09;99421.16;;;18.12;50.35
73842;BME280;62184;52.006;5.924;2023-03-23T07:18:38;99430.97;;;18.13;50.29
73842;BME280;62184;52.006;5.924;2023-03-23T07:21:05;99428.16;;;18.15;50.27
73842;BME280;62184;52.006;5.924;2023-03-23T07:23:32;99429.41;;;18.22;50.15
73842;BME280;62184;52.006;5.924;2023-03-23T07:25:58;99428.03;;;18.27;50.03
73842;BME280;62184;52.006;5.924;2023-03-23T07:28:25;99438.84;;;18.27;49.87
73842;BME280;62184;52.006;5.924;2023-03-23T07:30:52;99435.66;;;18.33;49.84
73842;BME280;62184;52.006;5.924;2023-03-23T07:33:18;99442.66;;;18.36;50.31
73842;BME280;62184;52.006;5.924;2023-03-23T07:35:47;99445.25;;;18.38;49.96
73842;BME280;62184;52.006;5.924;2023-03-23T07:38:14;99447.59;;;18.42;49.87
73842;BME280;62184;52.006;5.924;2023-03-23T07:40:40;99450.72;;;18.49;50.03
73842;BME280;62184;52.006;5.924;2023-03-23T07:43:07;99458.22;;;18.56;49.83
73842;BME280;62184;52.006;5.924;2023-03-23T07:45:34;99457.47;;;18.54;49.15
73842;BME280;62184;52.006;5.924;2023-03-23T07:48:00;99446.59;;;18.43;48.90
73842;BME280;62184;52.006;5.924;2023-03-23T07:50:26;99464.56;;;18.33;48.59
73842;BME280;62184;52.006;5.924;2023-03-23T07:52:57;99461.94;;;18.20;48.91
73842;BME280;62184;52.006;5.924;2023-03-23T07:55:24;99465.03;;;18.27;48.99
73842;BME280;62184;52.006;5.924;2023-03-23T07:57:53;99467.13;;;18.23;48.84
73842;BME280;62184;52.006;5.924;2023-03-23T08:00:21;99465.28;;;18.24;48.62
73842;BME280;62184;52.006;5.924;2023-03-23T08:02:50;99485.63;;;18.17;49.04
73842;BME280;62184;52.006;5.924;2023-03-23T08:05:18;99488.31;;;18.06;49.59
73842;BME280;62184;52.006;5.924;2023-03-23T08:07:45;99480.81;;;17.98;50.06
73842;BME280;62184;52.006;5.924;2023-03-23T08:10:15;99484.50;;;17.97;50.02
73842;BME280;62184;52.006;5.924;2023-03-23T08:12:43;99487.03;;;17.87;50.75
73842;BME280;62184;52.006;5.924;2023-03-23T08:15:11;99492.66;;;17.84;51.15
73842;BME280;62184;52.006;5.924;2023-03-23T08:17:39;99498.81;;;17.86;51.22
73842;BME280;62184;52.006;5.924;2023-03-23T08:20:08;99502.50;;;17.85;51.45
73842;BME280;62184;52.006;5.924;2023-03-23T08:22:36;99501.50;;;17.86;51.51
73842;BME280;62184;52.006;5.924;2023-03-23T08:25:04;99497.84;;;17.87;51.67
73842;BME280;62184;52.006;5.924;2023-03-23T08:27:34;99492.72;;;17.95;51.87
73842;BME280;62184;52.006;5.924;2023-03-23T08:30:01;99505.50;;;18.05;52.15
73842;BME280;62184;52.006;5.924;2023-03-23T08:32:27;99508.81;;;18.08;52.14
73842;BME280;62184;52.006;5.924;2023-03-23T08:34:54;99522.59;;;18.05;52.23
73842;BME280;62184;52.006;5.924;2023-03-23T08:37:20;99524.25;;;17.95;52.18
73842;BME280;62184;52.006;5.924;2023-03-23T08:39:50;99516.16;;;17.95;52.36
73842;BME280;62184;52.006;5.924;2023-03-23T08:42:17;99508.22;;;18.05;52.43
73842;BME280;62184;52.006;5.924;2023-03-23T08:44:46;99506.91;;;18.21;52.17
73842;BME280;62184;52.006;5.924;2023-03-23T08:47:13;99516.38;;;18.27;51.90
73842;BME280;62184;52.006;5.924;2023-03-23T08:49:39;99504.25;;;18.32;52.17
73842;BME280;62184;52.006;5.924;2023-03-23T08:52:05;99507.69;;;18.46;51.72
73842;BME280;62184;52.006;5.924;2023-03-23T08:54:32;99509.22;;;18.50;50.96
73842;BME280;62184;52.006;5.924;2023-03-23T08:56:59;99511.00;;;18.38;50.81
73842;BME280;62184;52.006;5.924;2023-03-23T08:59:25;99516.63;;;18.35;51.00
73842;BME280;62184;52.006;5.924;2023-03-23T09:01:55;99516.19;;;18.41;50.75
73842;BME280;62184;52.006;5.924;2023-03-23T09:04:21;99520.88;;;18.50;50.57
73842;BME280;62184;52.006;5.924;2023-03-23T09:06:47;99521.03;;;18.49;49.78
73842;BME280;62184;52.006;5.924;2023-03-23T09:09:14;99517.88;;;18.42;49.91
73842;BME280;62184;52.006;5.924;2023-03-23T09:11:40;99528.69;;;18.42;49.78
73842;BME280;62184;52.006;5.924;2023-03-23T09:14:07;99537.44;;;18.46;49.66
73842;BME280;62184;52.006;5.924;2023-03-23T09:16:34;99521.34;;;18.44;49.48
73842;BME280;62184;52.006;5.924;2023-03-23T09:19:03;99513.03;;;18.47;49.04
73842;BME280;62184;52.006;5.924;2023-03-23T09:21:30;99516.97;;;18.54;48.85
73842;BME280;62184;52.006;5.924;2023-03-23T09:23:56;99517.34;;;18.61;49.24
73842;BME280;62184;52.006;5.924;2023-03-23T09:26:23;99522.13;;;18.68;48.35
73842;BME280;62184;52.006;5.924;2023-03-23T09:28:49;99521.78;;;18.73;48.40
73842;BME280;62184;52.006;5.924;2023-03-23T09:31:16;99533.22;;;18.77;48.39
73842;BME280;62184;52.006;5.924;2023-03-23T09:33:42;99526.94;;;18.76;48.14
73842;BME280;62184;52.006;5.924;2023-03-23T09:36:11;99533.84;;;18.80;47.75
73842;BME280;62184;52.006;5.924;2023-03-23T09:38:38;99533.72;;;18.82;47.87
73842;BME280;62184;52.006;5.924;2023-03-23T09:41:16;99540.59;;;18.75;48.13
73842;BME280;62184;52.006;5.924;2023-03-23T09:44:03;99532.72;;;18.94;47.27
73842;BME280;62184;52.006;5.924;2023-03-23T09:46:45;99541.81;;;18.93;47.19
73842;BME280;62184;52.006;5.924;2023-03-23T09:49:22;99540.38;;;19.00;47.57
73842;BME280;62184;52.006;5.924;2023-03-23T09:51:59;99543.78;;;19.13;47.11
73842;BME280;62184;52.006;5.924;2023-03-23T09:54:34;99540.34;;;19.33;46.70
73842;BME280;62184;52.006;5.924;2023-03-23T09:57:03;99543.16;;;19.43;46.50
73842;BME280;62184;52.006;5.924;2023-03-23T09:59:41;99544.41;;;19.50;45.63
73842;BME280;62184;52.006;5.924;2023-03-23T10:02:17;99558.56;;;19.42;46.13
73842;BME280;62184;52.006;5.924;2023-03-23T10:04:47;99558.56;;;19.42;45.31
73842;BME280;62184;52.006;5.924;2023-03-23T10:07:18;99564.25;;;19.39;46.16
73842;BME280;62184;52.006;5.924;2023-03-23T10:09:49;99552.25;;;19.53;45.89
73842;BME280;62184;52.006;5.924;2023-03-23T10:12:27;99553.00;;;19.66;45.83
73842;BME280;62184;52.006;5.924;2023-03-23T10:15:10;99559.50;;;19.75;45.35
73842;BME280;62184;52.006;5.924;2023-03-23T10:17:45;99563.75;;;19.89;44.85
73842;BME280;62184;52.006;5.924;2023-03-23T10:20:33;99544.69;;;20.11;44.83
73842;BME280;62184;52.006;5.924;2023-03-23T10:23:32;99570.66;;;20.25;44.21
73842;BME280;62184;52.006;5.924;2023-03-23T10:26:10;99556.66;;;20.40;44.24
73842;BME280;62184;52.006;5.924;2023-03-23T10:28:47;99564.44;;;20.54;44.07
73842;BME280;62184;52.006;5.924;2023-03-23T10:31:19;99568.34;;;20.62;43.24
73842;BME280;62184;52.006;5.924;2023-03-23T10:33:50;99567.63;;;20.80;43.63
73842;BME280;62184;52.006;5.924;2023-03-23T10:36:24;99561.66;;;21.07;42.61
73842;BME280;62184;52.006;5.924;2023-03-23T10:38:59;99572.94;;;21.12;42.60
73842;BME280;62184;52.006;5.924;2023-03-23T10:41:31;99572.69;;;21.15;41.84
73842;BME280;62184;52.006;5.924;2023-03-23T10:43:57;99589.94;;;21.05;41.93
73842;BME280;62184;52.006;5.924;2023-03-23T10:46:35;99590.09;;;21.13;41.68
73842;BME280;62184;52.006;5.924;2023-03-23T10:49:12;99580.72;;;21.26;41.50
73842;BME280;62184;52.006;5.924;2023-03-23T10:51:47;99588.25;;;21.13;40.63
73842;BME280;62184;52.006;5.924;2023-03-23T10:54:37;99578.75;;;20.98;40.89
73842;BME280;62184;52.006;5.924;2023-03-23T10:57:13;99585.41;;;20.94;41.03
73842;BME280;62184;52.006;5.924;2023-03-23T10:59:47;99592.19;;;21.00;40.86
73842;BME280;62184;52.006;5.924;2023-03-23T11:02:17;99581.63;;;20.85;40.62
73842;BME280;62184;52.006;5.924;2023-03-23T11:04:56;99590.56;;;20.76;40.56
73842;BME280;62184;52.006;5.924;2023-03-23T11:07:30;99578.06;;;20.85;40.23
73842;BME280;62184;52.006;5.924;2023-03-23T11:10:15;99587.97;;;20.95;39.95
73842;BME280;62184;52.006;5.924;2023-03-23T11:12:46;99581.81;;;20.93;39.93
73842;BME280;62184;52.006;5.924;2023-03-23T11:15:23;99578.47;;;20.80;39.65
73842;BME280;62184;52.006;5.924;2023-03-23T11:17:58;99574.84;;;20.70;40.17
73842;BME280;62184;52.006;5.924;2023-03-23T11:20:27;99578.59;;;20.79;40.05
73842;BME280;62184;52.006;5.924;2023-03-23T11:22:55;99574.97;;;20.89;40.71
73842;BME280;62184;52.006;5.924;2023-03-23T11:25:24;99575.97;;;21.19;40.22
73842;BME280;62184;52.006;5.924;2023-03-23T11:27:51;99584.78;;;21.32;39.57
73842;BME280;62184;52.006;5.924;2023-03-23T11:30:25;99567.84;;;21.59;39.69
73842;BME280;62184;52.006;5.924;2023-03-23T11:32:54;99574.34;;;21.77;38.98
73842;BME280;62184;52.006;5.924;2023-03-23T11:35:26;99583.25;;;21.89;38.75
73842;BME280;62184;52.006;5.924;2023-03-23T11:37:56;99574.66;;;22.03;38.85
73842;BME280;62184;52.006;5.924;2023-03-23T11:40:27;99572.81;;;22.13;38.49
73842;BME280;62184;52.006;5.924;2023-03-23T11:42:58;99572.69;;;22.24;38.41
73842;BME280;62184;52.006;5.924;2023-03-23T11:45:32;99576.13;;;22.26;37.68
73842;BME280;62184;52.006;5.924;2023-03-23T11:48:13;99572.81;;;22.13;37.44
73842;BME280;62184;52.006;5.924;2023-03-23T11:50:50;99583.94;;;21.81;37.62
73842;BME280;62184;52.006;5.924;2023-03-23T11:53:28;99579.63;;;21.79;38.11
73842;BME280;62184;52.006;5.924;2023-03-23T11:56:11;99587.31;;;21.74;38.22
73842;BME280;62184;52.006;5.924;2023-03-23T11:58:45;99559.81;;;21.57;38.52
73842;BME280;62184;52.006;5.924;2023-03-23T12:01:24;99585.41;;;21.55;38.60
73842;BME280;62184;52.006;5.924;2023-03-23T12:04:30;99582.28;;;21.59;38.49
73842;BME280;62184;52.006;5.924;2023-03-23T12:07:12;99585.50;;;21.44;38.83
73842;BME280;62184;52.006;5.924;2023-03-23T12:10:10;99585.06;;;21.39;38.98
73842;BME280;62184;52.006;5.924;2023-03-23T12:12:59;99590.97;;;21.53;39.02
73842;BME280;62184;52.006;5.924;2023-03-23T12:15:38;99574.97;;;21.60;39.16
73842;BME280;62184;52.006;5.924;2023-03-23T12:18:18;99581.44;;;21.68;38.92
73842;BME280;62184;52.006;5.924;2023-03-23T12:21:00;99579.59;;;21.59;38.72
73842;BME280;62184;52.006;5.924;2023-03-23T12:23:40;99579.38;;;21.51;38.40
73842;BME280;62184;52.006;5.924;2023-03-23T12:26:20;99585.34;;;21.36;39.04
73842;BME280;62184;52.006;5.924;2023-03-23T12:29:22;99576.16;;;21.27;39.54
73842;BME280;62184;52.006;5.924;2023-03-23T12:32:23;99574.31;;;21.27;39.98
73842;BME280;62184;52.006;5.924;2023-03-23T12:35:16;99584.09;;;21.40;40.31
73842;BME280;62184;52.006;5.924;2023-03-23T12:38:03;99581.53;;;21.48;39.92
73842;BME280;62184;52.006;5.924;2023-03-23T12:43:49;99571.66;;;21.47;40.08
73842;BME280;62184;52.006;5.924;2023-03-23T12:46:50;99568.91;;;21.37;39.47
73842;BME280;62184;52.006;5.924;2023-03-23T12:49:32;99585.47;;;21.24;40.07
73842;BME280;62184;52.006;5.924;2023-03-23T12:52:19;99571.28;;;21.21;40.44
73842;BME280;62184;52.006;5.924;2023-03-23T12:54:53;99567.00;;;21.28;40.48
73842;BME280;62184;52.006;5.924;2023-03-23T12:57:29;99568.00;;;21.27;40.98
73842;BME280;62184;52.006;5.924;2023-03-23T13:00:06;99573.38;;;20.87;42.23
73842;BME280;62184;52.006;5.924;2023-03-23T13:02:49;99600.84;;;20.31;43.72
73842;BME280;62184;52.006;5.924;2023-03-23T13:05:34;99607.88;;;19.79;46.00
73842;BME280;62184;52.006;5.924;2023-03-23T13:08:09;99593.41;;;19.36;46.75
73842;BME280;62184;52.006;5.924;2023-03-23T13:10:45;99572.09;;;19.09;48.08
73842;BME280;62184;52.006;5.924;2023-03-23T13:13:17;99571.84;;;18.90;48.73
73842;BME280;62184;52.006;5.924;2023-03-23T13:15:55;99572.72;;;18.90;49.52
73842;BME280;62184;52.006;5.924;2023-03-23T13:18:38;99564.72;;;19.00;49.72
73842;BME280;62184;52.006;5.924;2023-03-23T13:21:16;99584.03;;;19.06;49.30
73842;BME280;62184;52.006;5.924;2023-03-23T13:23:53;99598.66;;;19.04;48.49